sensor_id;sensor_type;location;lat;lon;timestamp;P1;durP1;ratioP1;P2;durP2;ratioP2
48651;SDS011;34442;52.362;-1.302;2023-10-19T00:00:47;1.35;;;0.90;;
48651;SDS011;34442;52.362;-1.302;2023-10-19T00:03:15;2.28;;;1.33;;
48651;SDS011;34442;52.362;-1.302;2023-10-19T00:05:41;1.52;;;0.93;;
48651;SDS011;34442;52.362;-1.302;2023-10-19T00:08:07;1.08;;;0.98;;
48651;SDS011;34442;52.362;-1.302;2023-10-19T00:10:39;1.95;;;1.10;;
48651;SDS011;34442;52.362;-1.302;2023-10-19T00:13:08;1.00;;;0.80;;
48651;SDS011;34442;52.362;-1.302;2023-10-19T00:15:35;1.50;;;0.98;;
48651;SDS011;34442;52.362;-1.302;2023-10-19T00:18:05;1.13;;;0.82;;
48651;SDS011;34442;52.362;-1.302;2023-10-19T00:20:44;1.23;;;1.00;;
48651;SDS011;34442;52.362;-1.302;2023-10-19T00:23:13;2.20;;;1.23;;
48651;SDS011;34442;52.362;-1.302;2023-10-19T00:25:43;1.33;;;1.10;;
48651;SDS011;34442;52.362;-1.302;2023-10-19T00:28:16;2.13;;;1.10;;
48651;SDS011;34442;52.362;-1.302;2023-10-19T00:30:43;2.05;;;1.20;;
48651;SDS011;34442;52.362;-1.302;2023-10-19T00:33:10;3.00;;;1.52;;
48651;SDS011;34442;52.362;-1.302;2023-10-19T00:35:46;1.88;;;1.10;;
48651;SDS011;34442;52.362;-1.302;2023-10-19T00:38:36;1.90;;;1.20;;
48651;SDS011;34442;52.362;-1.302;2023-10-19T00:41:03;3.03;;;1.58;;
48651;SDS011;34442;52.362;-1.302;2023-10-19T00:43:36;1.65;;;1.20;;
48651;SDS011;34442;52.362;-1.302;2023-10-19T00:46:12;2.38;;;1.20;;
48651;SDS011;34442;52.362;-1.302;2023-10-19T00:48:45;2.40;;;1.35;;
48651;SDS011;34442;52.362;-1.302;2023-10-19T00:51:19;1.50;;;1.00;;
48651;SDS011;34442;52.362;-1.302;2023-10-19T00:54:20;2.70;;;1.40;;
48651;SDS011;34442;52.362;-1.302;2023-10-19T00:56:58;2.22;;;1.23;;
48651;SDS011;34442;52.362;-1.302;2023-10-19T00:59:32;1.58;;;1.02;;
48651;SDS011;34442;52.362;-1.302;2023-10-19T01:02:12;2.10;;;1.25;;
48651;SDS011;34442;52.362;-1.302;2023-10-19T01:04:44;2.72;;;1.40;;
48651;SDS011;34442;52.362;-1.302;2023-10-19T01:07:15;0.70;;;0.70;;
48651;SDS011;34442;52.362;-1.302;2023-10-19T01:10:02;1.23;;;0.90;;
48651;SDS011;34442;52.362;-1.302;2023-10-19T01:12:37;1.15;;;1.00;;
48651;SDS011;34442;52.362;-1.302;2023-10-19T01:15:03;1.63;;;1.02;;
48651;SDS011;34442;52.362;-1.302;2023-10-19T01:17:31;2.00;;;1.00;;
48651;SDS011;34442;52.362;-1.302;2023-10-19T01:19:59;1.60;;;1.00;;
48651;SDS011;34442;52.362;-1.302;2023-10-19T01:22:26;1.25;;;1.02;;
48651;SDS011;34442;52.362;-1.302;2023-10-19T01:24:52;0.80;;;0.80;;
48651;SDS011;34442;52.362;-1.302;2023-10-19T01:27:19;1.10;;;0.80;;
48651;SDS011;34442;52.362;-1.302;2023-10-19T01:29:45;1.10;;;0.90;;
48651;SDS011;34442;52.362;-1.302;2023-10-19T01:32:11;0.95;;;0.80;;
48651;SDS011;34442;52.362;-1.302;2023-10-19T01:34:40;1.08;;;0.70;;
48651;SDS011;34442;52.362;-1.302;2023-10-19T01:37:05;1.23;;;0.75;;
48651;SDS011;34442;52.362;-1.302;2023-10-19T01:39:31;0.95;;;0.70;;
48651;SDS011;34442;52.362;-1.302;2023-10-19T01:42:00;1.20;;;0.68;;
48651;SDS011;34442;52.362;-1.302;2023-10-19T01:44:25;0.57;;;0.57;;
48651;SDS011;34442;52.362;-1.302;2023-10-19T01:46:51;0.60;;;0.60;;
48651;SDS011;34442;52.362;-1.302;2023-10-19T01:49:17;0.50;;;0.50;;
48651;SDS011;34442;52.362;-1.302;2023-10-19T01:51:53;0.85;;;0.65;;
48651;SDS011;34442;52.362;-1.302;2023-10-19T01:54:19;0.52;;;0.52;;
48651;SDS011;34442;52.362;-1.302;2023-10-19T01:56:53;0.50;;;0.50;;
48651;SDS011;34442;52.362;-1.302;2023-10-19T01:59:24;0.60;;;0.60;;
48651;SDS011;34442;52.362;-1.302;2023-10-19T02:01:55;0.57;;;0.50;;
48651;SDS011;34442;52.362;-1.302;2023-10-19T02:04:22;0.50;;;0.50;;
48651;SDS011;34442;52.362;-1.302;2023-10-19T02:06:48;0.47;;;0.47;;
48651;SDS011;34442;52.362;-1.302;2023-10-19T02:09:16;0.40;;;0.40;;
48651;SDS011;34442;52.362;-1.302;2023-10-19T02:11:43;1.25;;;0.55;;
48651;SDS011;34442;52.362;-1.302;2023-10-19T02:14:12;0.35;;;0.35;;
48651;SDS011;34442;52.362;-1.302;2023-10-19T02:16:42;0.90;;;0.50;;
48651;SDS011;34442;52.362;-1.302;2023-10-19T02:19:08;0.77;;;0.50;;
48651;SDS011;34442;52.362;-1.302;2023-10-19T02:21:34;0.40;;;0.40;;
48651;SDS011;34442;52.362;-1.302;2023-10-19T02:24:05;0.45;;;0.45;;
48651;SDS011;34442;52.362;-1.302;2023-10-19T02:26:35;0.82;;;0.45;;
48651;SDS011;34442;52.362;-1.302;2023-10-19T02:29:02;0.57;;;0.50;;
48651;SDS011;34442;52.362;-1.302;2023-10-19T02:31:39;1.05;;;0.50;;
48651;SDS011;34442;52.362;-1.302;2023-10-19T02:34:05;0.63;;;0.40;;
48651;SDS011;34442;52.362;-1.302;2023-10-19T02:36:36;0.45;;;0.45;;
48651;SDS011;34442;52.362;-1.302;2023-10-19T02:39:03;1.17;;;0.70;;
48651;SDS011;34442;52.362;-1.302;2023-10-19T02:41:51;0.40;;;0.40;;
48651;SDS011;34442;52.362;-1.302;2023-10-19T02:44:18;0.85;;;0.50;;
48651;SDS011;34442;52.362;-1.302;2023-10-19T02:46:48;0.40;;;0.40;;
48651;SDS011;34442;52.362;-1.302;2023-10-19T02:49:23;0.75;;;0.40;;
48651;SDS011;34442;52.362;-1.302;2023-10-19T02:51:51;1.17;;;0.50;;
48651;SDS011;34442;52.362;-1.302;2023-10-19T02:54:18;0.45;;;0.45;;
48651;SDS011;34442;52.362;-1.302;2023-10-19T02:56:48;0.82;;;0.73;;
48651;SDS011;34442;52.362;-1.302;2023-10-19T02:59:18;0.70;;;0.40;;
48651;SDS011;34442;52.362;-1.302;2023-10-19T03:01:47;0.45;;;0.45;;
48651;SDS011;34442;52.362;-1.302;2023-10-19T03:04:14;0.50;;;0.50;;
48651;SDS011;34442;52.362;-1.302;2023-10-19T03:06:40;0.32;;;0.32;;
48651;SDS011;34442;52.362;-1.302;2023-10-19T03:09:06;1.08;;;0.47;;
48651;SDS011;34442;52.362;-1.302;2023-10-19T03:11:39;0.88;;;0.55;;
48651;SDS011;34442;52.362;-1.302;2023-10-19T03:14:08;0.65;;;0.50;;
48651;SDS011;34442;52.362;-1.302;2023-10-19T03:16:36;1.00;;;0.57;;
48651;SDS011;34442;52.362;-1.302;2023-10-19T03:19:02;0.80;;;0.47;;
48651;SDS011;34442;52.362;-1.302;2023-10-19T03:21:29;0.40;;;0.40;;
48651;SDS011;34442;52.362;-1.302;2023-10-19T03:23:58;0.70;;;0.47;;
48651;SDS011;34442;52.362;-1.302;2023-10-19T03:26:27;1.10;;;0.60;;
48651;SDS011;34442;52.362;-1.302;2023-10-19T03:28:55;0.85;;;0.68;;
48651;SDS011;34442;52.362;-1.302;2023-10-19T03:31:24;0.40;;;0.40;;
48651;SDS011;34442;52.362;-1.302;2023-10-19T03:33:53;1.08;;;0.65;;
48651;SDS011;34442;52.362;-1.302;2023-10-19T03:36:24;0.55;;;0.47;;
48651;SDS011;34442;52.362;-1.302;2023-10-19T03:38:51;0.88;;;0.50;;
48651;SDS011;34442;52.362;-1.302;2023-10-19T03:41:18;0.32;;;0.32;;
48651;SDS011;34442;52.362;-1.302;2023-10-19T03:43:49;0.40;;;0.40;;
48651;SDS011;34442;52.362;-1.302;2023-10-19T03:46:17;0.80;;;0.60;;
48651;SDS011;34442;52.362;-1.302;2023-10-19T03:49:02;0.40;;;0.40;;
48651;SDS011;34442;52.362;-1.302;2023-10-19T03:51:39;0.50;;;0.45;;
48651;SDS011;34442;52.362;-1.302;2023-10-19T03:54:26;0.40;;;0.40;;
48651;SDS011;34442;52.362;-1.302;2023-10-19T03:56:53;0.63;;;0.50;;
48651;SDS011;34442;52.362;-1.302;2023-10-19T03:59:21;0.30;;;0.30;;
48651;SDS011;34442;52.362;-1.302;2023-10-19T04:01:46;0.73;;;0.50;;
48651;SDS011;34442;52.362;-1.302;2023-10-19T04:04:13;0.80;;;0.60;;
48651;SDS011;34442;52.362;-1.302;2023-10-19T04:06:41;0.40;;;0.40;;
48651;SDS011;34442;52.362;-1.302;2023-10-19T04:09:12;0.50;;;0.50;;
48651;SDS011;34442;52.362;-1.302;2023-10-19T04:11:42;0.75;;;0.40;;
48651;SDS011;34442;52.362;-1.302;2023-10-19T04:14:16;0.60;;;0.60;;
48651;SDS011;34442;52.362;-1.302;2023-10-19T04:16:46;0.50;;;0.50;;
48651;SDS011;34442;52.362;-1.302;2023-10-19T04:19:13;0.45;;;0.45;;
48651;SDS011;34442;52.362;-1.302;2023-10-19T04:21:40;0.50;;;0.50;;
48651;SDS011;34442;52.362;-1.302;2023-10-19T04:24:09;1.13;;;0.60;;
48651;SDS011;34442;52.362;-1.302;2023-10-19T04:26:35;0.82;;;0.50;;
48651;SDS011;34442;52.362;-1.302;2023-10-19T04:29:04;0.50;;;0.50;;
48651;SDS011;34442;52.362;-1.302;2023-10-19T04:31:43;0.80;;;0.60;;
48651;SDS011;34442;52.362;-1.302;2023-10-19T04:34:17;0.50;;;0.50;;
48651;SDS011;34442;52.362;-1.302;2023-10-19T04:36:46;0.50;;;0.50;;
48651;SDS011;34442;52.362;-1.302;2023-10-19T04:39:14;0.93;;;0.60;;
48651;SDS011;34442;52.362;-1.302;2023-10-19T04:41:40;0.65;;;0.55;;
48651;SDS011;34442;52.362;-1.302;2023-10-19T04:44:06;1.45;;;0.82;;
48651;SDS011;34442;52.362;-1.302;2023-10-19T04:46:33;1.48;;;0.70;;
48651;SDS011;34442;52.362;-1.302;2023-10-19T04:48:59;0.40;;;0.40;;
48651;SDS011;34442;52.362;-1.302;2023-10-19T04:51:25;0.75;;;0.73;;
48651;SDS011;34442;52.362;-1.302;2023-10-19T04:53:50;0.60;;;0.60;;
48651;SDS011;34442;52.362;-1.302;2023-10-19T04:56:15;1.00;;;0.60;;
48651;SDS011;34442;52.362;-1.302;2023-10-19T04:58:41;0.82;;;0.63;;
48651;SDS011;34442;52.362;-1.302;2023-10-19T05:01:06;0.60;;;0.50;;
48651;SDS011;34442;52.362;-1.302;2023-10-19T05:03:32;0.73;;;0.52;;
48651;SDS011;34442;52.362;-1.302;2023-10-19T05:05:58;0.40;;;0.40;;
48651;SDS011;34442;52.362;-1.302;2023-10-19T05:08:23;0.90;;;0.57;;
48651;SDS011;34442;52.362;-1.302;2023-10-19T05:10:51;1.40;;;0.85;;
48651;SDS011;34442;52.362;-1.302;2023-10-19T05:13:20;0.57;;;0.57;;
48651;SDS011;34442;52.362;-1.302;2023-10-19T05:15:50;2.45;;;0.80;;
48651;SDS011;34442;52.362;-1.302;2023-10-19T05:18:15;1.13;;;0.85;;
48651;SDS011;34442;52.362;-1.302;2023-10-19T05:20:41;0.60;;;0.60;;
48651;SDS011;34442;52.362;-1.302;2023-10-19T05:23:07;0.88;;;0.63;;
48651;SDS011;34442;52.362;-1.302;2023-10-19T05:25:33;0.52;;;0.50;;
48651;SDS011;34442;52.362;-1.302;2023-10-19T05:28:01;1.65;;;0.63;;
48651;SDS011;34442;52.362;-1.302;2023-10-19T05:30:27;0.80;;;0.70;;
48651;SDS011;34442;52.362;-1.302;2023-10-19T05:32:52;1.70;;;0.90;;
48651;SDS011;34442;52.362;-1.302;2023-10-19T05:35:18;1.65;;;0.70;;
48651;SDS011;34442;52.362;-1.302;2023-10-19T05:37:51;2.10;;;0.85;;
48651;SDS011;34442;52.362;-1.302;2023-10-19T05:40:17;1.15;;;0.70;;
48651;SDS011;34442;52.362;-1.302;2023-10-19T05:42:44;0.80;;;0.70;;
48651;SDS011;34442;52.362;-1.302;2023-10-19T05:45:11;1.48;;;0.70;;
48651;SDS011;34442;52.362;-1.302;2023-10-19T05:47:38;1.77;;;0.90;;
48651;SDS011;34442;52.362;-1.302;2023-10-19T05:50:04;1.20;;;0.90;;
48651;SDS011;34442;52.362;-1.302;2023-10-19T05:52:30;2.15;;;0.73;;
48651;SDS011;34442;52.362;-1.302;2023-10-19T05:54:55;1.00;;;0.80;;
48651;SDS011;34442;52.362;-1.302;2023-10-19T05:57:22;2.13;;;1.00;;
48651;SDS011;34442;52.362;-1.302;2023-10-19T05:59:49;1.45;;;0.68;;
48651;SDS011;34442;52.362;-1.302;2023-10-19T06:02:14;4.00;;;1.08;;
48651;SDS011;34442;52.362;-1.302;2023-10-19T06:04:40;2.22;;;0.98;;
48651;SDS011;34442;52.362;-1.302;2023-10-19T06:07:05;3.13;;;0.90;;
48651;SDS011;34442;52.362;-1.302;2023-10-19T06:09:31;1.73;;;0.82;;
48651;SDS011;34442;52.362;-1.302;2023-10-19T06:11:56;1.20;;;0.82;;
48651;SDS011;34442;52.362;-1.302;2023-10-19T06:14:22;2.92;;;1.13;;
48651;SDS011;34442;52.362;-1.302;2023-10-19T06:16:47;4.00;;;0.93;;
48651;SDS011;34442;52.362;-1.302;2023-10-19T06:19:13;2.42;;;1.00;;
48651;SDS011;34442;52.362;-1.302;2023-10-19T06:21:38;3.05;;;1.00;;
48651;SDS011;34442;52.362;-1.302;2023-10-19T06:24:05;3.30;;;1.17;;
48651;SDS011;34442;52.362;-1.302;2023-10-19T06:26:31;4.57;;;1.30;;
48651;SDS011;34442;52.362;-1.302;2023-10-19T06:28:57;2.08;;;1.00;;
48651;SDS011;34442;52.362;-1.302;2023-10-19T06:31:24;4.78;;;1.58;;
48651;SDS011;34442;52.362;-1.302;2023-10-19T06:33:54;2.63;;;1.10;;
48651;SDS011;34442;52.362;-1.302;2023-10-19T06:36:19;1.60;;;0.90;;
48651;SDS011;34442;52.362;-1.302;2023-10-19T06:38:45;1.90;;;0.90;;
48651;SDS011;34442;52.362;-1.302;2023-10-19T06:41:13;1.58;;;0.90;;
48651;SDS011;34442;52.362;-1.302;2023-10-19T06:43:39;2.65;;;1.17;;
48651;SDS011;34442;52.362;-1.302;2023-10-19T06:46:05;2.72;;;1.05;;
48651;SDS011;34442;52.362;-1.302;2023-10-19T06:48:31;2.13;;;1.05;;
48651;SDS011;34442;52.362;-1.302;2023-10-19T06:50:57;1.95;;;0.80;;
48651;SDS011;34442;52.362;-1.302;2023-10-19T06:53:26;1.65;;;0.80;;
48651;SDS011;34442;52.362;-1.302;2023-10-19T06:55:51;1.23;;;0.88;;
48651;SDS011;34442;52.362;-1.302;2023-10-19T06:58:18;0.95;;;0.70;;
48651;SDS011;34442;52.362;-1.302;2023-10-19T07:00:46;0.65;;;0.63;;
48651;SDS011;34442;52.362;-1.302;2023-10-19T07:03:21;1.55;;;0.85;;
48651;SDS011;34442;52.362;-1.302;2023-10-19T07:05:47;1.42;;;0.77;;
48651;SDS011;34442;52.362;-1.302;2023-10-19T07:08:13;1.95;;;0.82;;
48651;SDS011;34442;52.362;-1.302;2023-10-19T07:10:41;1.52;;;0.82;;
48651;SDS011;34442;52.362;-1.302;2023-10-19T07:13:08;1.00;;;0.80;;
48651;SDS011;34442;52.362;-1.302;2023-10-19T07:15:33;0.77;;;0.77;;
48651;SDS011;34442;52.362;-1.302;2023-10-19T07:17:59;0.70;;;0.70;;
48651;SDS011;34442;52.362;-1.302;2023-10-19T07:20:25;1.48;;;0.68;;
48651;SDS011;34442;52.362;-1.302;2023-10-19T07:23:00;1.33;;;0.77;;
48651;SDS011;34442;52.362;-1.302;2023-10-19T07:25:46;0.77;;;0.60;;
48651;SDS011;34442;52.362;-1.302;2023-10-19T07:28:13;0.50;;;0.50;;
48651;SDS011;34442;52.362;-1.302;2023-10-19T07:30:41;1.25;;;0.90;;
48651;SDS011;34442;52.362;-1.302;2023-10-19T07:33:09;1.33;;;0.65;;
48651;SDS011;34442;52.362;-1.302;2023-10-19T07:35:35;1.83;;;0.80;;
48651;SDS011;34442;52.362;-1.302;2023-10-19T07:38:04;1.58;;;0.80;;
48651;SDS011;34442;52.362;-1.302;2023-10-19T07:40:32;1.27;;;0.52;;
48651;SDS011;34442;52.362;-1.302;2023-10-19T07:42:58;1.52;;;0.63;;
48651;SDS011;34442;52.362;-1.302;2023-10-19T07:45:25;1.83;;;0.73;;
48651;SDS011;34442;52.362;-1.302;2023-10-19T07:47:50;0.55;;;0.52;;
48651;SDS011;34442;52.362;-1.302;2023-10-19T07:50:16;1.00;;;0.70;;
48651;SDS011;34442;52.362;-1.302;2023-10-19T07:52:49;1.23;;;0.70;;
48651;SDS011;34442;52.362;-1.302;2023-10-19T07:55:16;1.50;;;0.60;;
48651;SDS011;34442;52.362;-1.302;2023-10-19T07:57:42;3.17;;;0.77;;
48651;SDS011;34442;52.362;-1.302;2023-10-19T08:00:09;0.93;;;0.65;;
48651;SDS011;34442;52.362;-1.302;2023-10-19T08:02:38;0.65;;;0.60;;
48651;SDS011;34442;52.362;-1.302;2023-10-19T08:05:06;1.73;;;0.70;;
48651;SDS011;34442;52.362;-1.302;2023-10-19T08:07:36;0.75;;;0.50;;
48651;SDS011;34442;52.362;-1.302;2023-10-19T08:10:04;2.05;;;0.82;;
48651;SDS011;34442;52.362;-1.302;2023-10-19T08:12:31;1.65;;;0.73;;
48651;SDS011;34442;52.362;-1.302;2023-10-19T08:14:58;1.40;;;0.70;;
48651;SDS011;34442;52.362;-1.302;2023-10-19T08:17:24;2.40;;;0.90;;
48651;SDS011;34442;52.362;-1.302;2023-10-19T08:19:50;1.52;;;0.63;;
48651;SDS011;34442;52.362;-1.302;2023-10-19T08:22:18;2.65;;;0.90;;
48651;SDS011;34442;52.362;-1.302;2023-10-19T08:24:44;2.13;;;1.08;;
48651;SDS011;34442;52.362;-1.302;2023-10-19T08:27:11;1.05;;;0.63;;
48651;SDS011;34442;52.362;-1.302;2023-10-19T08:29:37;2.35;;;0.77;;
48651;SDS011;34442;52.362;-1.302;2023-10-19T08:32:03;3.30;;;0.88;;
48651;SDS011;34442;52.362;-1.302;2023-10-19T08:34:29;1.77;;;0.75;;
48651;SDS011;34442;52.362;-1.302;2023-10-19T08:37:02;1.80;;;0.63;;
48651;SDS011;34442;52.362;-1.302;2023-10-19T08:39:29;3.10;;;0.90;;
48651;SDS011;34442;52.362;-1.302;2023-10-19T08:42:01;2.15;;;0.88;;
48651;SDS011;34442;52.362;-1.302;2023-10-19T08:44:31;1.48;;;0.63;;
48651;SDS011;34442;52.362;-1.302;2023-10-19T08:46:58;1.83;;;0.80;;
48651;SDS011;34442;52.362;-1.302;2023-10-19T08:49:24;2.83;;;0.82;;
48651;SDS011;34442;52.362;-1.302;2023-10-19T08:51:51;1.50;;;0.73;;
48651;SDS011;34442;52.362;-1.302;2023-10-19T08:54:19;3.63;;;0.85;;
48651;SDS011;34442;52.362;-1.302;2023-10-19T08:56:45;1.73;;;0.80;;
48651;SDS011;34442;52.362;-1.302;2023-10-19T08:59:12;1.08;;;0.63;;
48651;SDS011;34442;52.362;-1.302;2023-10-19T09:01:42;0.90;;;0.70;;
48651;SDS011;34442;52.362;-1.302;2023-10-19T09:04:11;1.10;;;0.60;;
48651;SDS011;34442;52.362;-1.302;2023-10-19T09:06:37;0.68;;;0.50;;
48651;SDS011;34442;52.362;-1.302;2023-10-19T09:09:10;1.65;;;0.80;;
48651;SDS011;34442;52.362;-1.302;2023-10-19T09:11:44;1.30;;;0.60;;
48651;SDS011;34442;52.362;-1.302;2023-10-19T09:14:12;1.13;;;0.70;;
48651;SDS011;34442;52.362;-1.302;2023-10-19T09:16:53;3.97;;;1.00;;
48651;SDS011;34442;52.362;-1.302;2023-10-19T09:19:41;3.92;;;0.90;;
48651;SDS011;34442;52.362;-1.302;2023-10-19T09:22:09;1.80;;;0.70;;
48651;SDS011;34442;52.362;-1.302;2023-10-19T09:24:44;1.50;;;0.60;;
48651;SDS011;34442;52.362;-1.302;2023-10-19T09:27:11;1.25;;;0.75;;
48651;SDS011;34442;52.362;-1.302;2023-10-19T09:29:38;1.40;;;0.77;;
48651;SDS011;34442;52.362;-1.302;2023-10-19T09:32:04;2.70;;;0.90;;
48651;SDS011;34442;52.362;-1.302;2023-10-19T09:34:30;1.60;;;0.70;;
48651;SDS011;34442;52.362;-1.302;2023-10-19T09:36:59;1.25;;;0.68;;
48651;SDS011;34442;52.362;-1.302;2023-10-19T09:39:28;2.20;;;1.00;;
48651;SDS011;34442;52.362;-1.302;2023-10-19T09:42:09;1.75;;;0.75;;
48651;SDS011;34442;52.362;-1.302;2023-10-19T09:47:10;3.33;;;0.80;;
48651;SDS011;34442;52.362;-1.302;2023-10-19T09:49:40;2.97;;;0.70;;
48651;SDS011;34442;52.362;-1.302;2023-10-19T09:52:08;2.35;;;0.80;;
48651;SDS011;34442;52.362;-1.302;2023-10-19T09:57:13;2.90;;;0.98;;
48651;SDS011;34442;52.362;-1.302;2023-10-19T09:59:44;3.28;;;0.95;;
48651;SDS011;34442;52.362;-1.302;2023-10-19T10:02:15;0.90;;;0.60;;
48651;SDS011;34442;52.362;-1.302;2023-10-19T10:04:45;1.13;;;0.80;;
48651;SDS011;34442;52.362;-1.302;2023-10-19T10:07:12;2.00;;;0.80;;
48651;SDS011;34442;52.362;-1.302;2023-10-19T10:09:41;2.53;;;0.80;;
48651;SDS011;34442;52.362;-1.302;2023-10-19T10:12:20;1.55;;;0.70;;
48651;SDS011;34442;52.362;-1.302;2023-10-19T10:14:58;1.33;;;0.50;;
48651;SDS011;34442;52.362;-1.302;2023-10-19T10:17:29;1.15;;;0.50;;
48651;SDS011;34442;52.362;-1.302;2023-10-19T10:22:39;1.27;;;0.65;;
48651;SDS011;34442;52.362;-1.302;2023-10-19T10:25:06;0.43;;;0.43;;
48651;SDS011;34442;52.362;-1.302;2023-10-19T10:27:35;0.80;;;0.52;;
48651;SDS011;34442;52.362;-1.302;2023-10-19T10:30:02;0.40;;;0.40;;
48651;SDS011;34442;52.362;-1.302;2023-10-19T10:35:10;0.40;;;0.40;;
48651;SDS011;34442;52.362;-1.302;2023-10-19T10:37:38;0.60;;;0.45;;
48651;SDS011;34442;52.362;-1.302;2023-10-19T10:40:06;0.75;;;0.50;;
48651;SDS011;34442;52.362;-1.302;2023-10-19T10:42:32;0.40;;;0.40;;
48651;SDS011;34442;52.362;-1.302;2023-10-19T10:44:59;1.23;;;0.75;;
48651;SDS011;34442;52.362;-1.302;2023-10-19T10:47:24;1.65;;;0.70;;
48651;SDS011;34442;52.362;-1.302;2023-10-19T10:50:00;0.93;;;0.50;;
48651;SDS011;34442;52.362;-1.302;2023-10-19T10:54:54;3.65;;;0.90;;
48651;SDS011;34442;52.362;-1.302;2023-10-19T10:57:23;1.75;;;0.80;;
48651;SDS011;34442;52.362;-1.302;2023-10-19T11:00:06;3.42;;;0.93;;
48651;SDS011;34442;52.362;-1.302;2023-10-19T11:05:33;1.65;;;0.75;;
48651;SDS011;34442;52.362;-1.302;2023-10-19T11:08:07;2.33;;;1.00;;
48651;SDS011;34442;52.362;-1.302;2023-10-19T11:10:41;3.60;;;0.98;;
48651;SDS011;34442;52.362;-1.302;2023-10-19T11:13:08;3.97;;;1.02;;
48651;SDS011;34442;52.362;-1.302;2023-10-19T11:15:35;8.27;;;1.67;;
48651;SDS011;34442;52.362;-1.302;2023-10-19T11:18:02;2.33;;;0.90;;
48651;SDS011;34442;52.362;-1.302;2023-10-19T11:20:27;4.20;;;1.33;;
48651;SDS011;34442;52.362;-1.302;2023-10-19T11:22:53;3.17;;;1.05;;
48651;SDS011;34442;52.362;-1.302;2023-10-19T11:25:29;3.35;;;1.27;;
48651;SDS011;34442;52.362;-1.302;2023-10-19T11:27:59;3.88;;;1.20;;
48651;SDS011;34442;52.362;-1.302;2023-10-19T11:30:27;3.05;;;1.00;;
48651;SDS011;34442;52.362;-1.302;2023-10-19T11:32:54;2.90;;;1.00;;
48651;SDS011;34442;52.362;-1.302;2023-10-19T11:35:27;1.95;;;0.90;;
48651;SDS011;34442;52.362;-1.302;2023-10-19T11:37:55;2.95;;;1.00;;
48651;SDS011;34442;52.362;-1.302;2023-10-19T11:40:25;5.10;;;2.03;;
48651;SDS011;34442;52.362;-1.302;2023-10-19T11:42:54;4.07;;;1.52;;
48651;SDS011;34442;52.362;-1.302;2023-10-19T11:45:21;1.50;;;0.95;;
48651;SDS011;34442;52.362;-1.302;2023-10-19T11:47:48;4.68;;;1.00;;
48651;SDS011;34442;52.362;-1.302;2023-10-19T11:50:14;5.13;;;1.23;;
48651;SDS011;34442;52.362;-1.302;2023-10-19T11:52:43;3.00;;;1.00;;
48651;SDS011;34442;52.362;-1.302;2023-10-19T11:55:13;6.68;;;1.30;;
48651;SDS011;34442;52.362;-1.302;2023-10-19T11:57:40;2.80;;;1.00;;
48651;SDS011;34442;52.362;-1.302;2023-10-19T12:00:08;5.25;;;1.67;;
48651;SDS011;34442;52.362;-1.302;2023-10-19T12:02:41;2.97;;;1.27;;
48651;SDS011;34442;52.362;-1.302;2023-10-19T12:05:09;2.03;;;1.00;;
48651;SDS011;34442;52.362;-1.302;2023-10-19T12:07:38;2.58;;;1.10;;
48651;SDS011;34442;52.362;-1.302;2023-10-19T12:10:05;5.28;;;1.67;;
48651;SDS011;34442;52.362;-1.302;2023-10-19T12:12:35;4.97;;;1.50;;
48651;SDS011;34442;52.362;-1.302;2023-10-19T12:15:02;4.07;;;1.20;;
48651;SDS011;34442;52.362;-1.302;2023-10-19T12:17:30;2.65;;;0.77;;
48651;SDS011;34442;52.362;-1.302;2023-10-19T12:19:57;2.22;;;1.00;;
48651;SDS011;34442;52.362;-1.302;2023-10-19T12:22:22;6.60;;;1.67;;
48651;SDS011;34442;52.362;-1.302;2023-10-19T12:24:49;6.70;;;1.85;;
48651;SDS011;34442;52.362;-1.302;2023-10-19T12:27:16;2.60;;;1.08;;
48651;SDS011;34442;52.362;-1.302;2023-10-19T12:29:43;6.32;;;1.80;;
48651;SDS011;34442;52.362;-1.302;2023-10-19T12:32:08;8.18;;;2.00;;
48651;SDS011;34442;52.362;-1.302;2023-10-19T12:34:34;2.47;;;1.25;;
48651;SDS011;34442;52.362;-1.302;2023-10-19T12:37:00;6.45;;;1.73;;
48651;SDS011;34442;52.362;-1.302;2023-10-19T12:39:27;4.85;;;1.33;;
48651;SDS011;34442;52.362;-1.302;2023-10-19T12:42:08;1.80;;;0.80;;
48651;SDS011;34442;52.362;-1.302;2023-10-19T12:44:34;4.13;;;1.00;;
48651;SDS011;34442;52.362;-1.302;2023-10-19T12:47:06;3.83;;;1.05;;
48651;SDS011;34442;52.362;-1.302;2023-10-19T12:49:38;1.45;;;0.82;;
48651;SDS011;34442;52.362;-1.302;2023-10-19T12:52:05;3.38;;;1.10;;
48651;SDS011;34442;52.362;-1.302;2023-10-19T12:54:32;4.18;;;1.20;;
48651;SDS011;34442;52.362;-1.302;2023-10-19T12:57:00;4.22;;;1.30;;
48651;SDS011;34442;52.362;-1.302;2023-10-19T12:59:29;1.73;;;0.77;;
48651;SDS011;34442;52.362;-1.302;2023-10-19T13:01:55;3.53;;;0.90;;
48651;SDS011;34442;52.362;-1.302;2023-10-19T13:04:25;3.10;;;0.93;;
48651;SDS011;34442;52.362;-1.302;2023-10-19T13:06:51;3.40;;;1.02;;
48651;SDS011;34442;52.362;-1.302;2023-10-19T13:09:19;4.15;;;1.30;;
48651;SDS011;34442;52.362;-1.302;2023-10-19T13:11:48;7.45;;;1.90;;
48651;SDS011;34442;52.362;-1.302;2023-10-19T13:14:17;1.98;;;0.80;;
48651;SDS011;34442;52.362;-1.302;2023-10-19T13:16:43;2.20;;;0.88;;
48651;SDS011;34442;52.362;-1.302;2023-10-19T13:19:08;3.05;;;1.08;;
48651;SDS011;34442;52.362;-1.302;2023-10-19T13:21:38;3.40;;;1.08;;
48651;SDS011;34442;52.362;-1.302;2023-10-19T13:24:03;2.13;;;1.10;;
48651;SDS011;34442;52.362;-1.302;2023-10-19T13:26:30;2.75;;;1.15;;
48651;SDS011;34442;52.362;-1.302;2023-10-19T13:28:57;8.07;;;1.55;;
48651;SDS011;34442;52.362;-1.302;2023-10-19T13:31:23;3.70;;;1.38;;
48651;SDS011;34442;52.362;-1.302;2023-10-19T13:33:54;4.07;;;1.23;;
48651;SDS011;34442;52.362;-1.302;2023-10-19T13:36:20;1.55;;;0.90;;
48651;SDS011;34442;52.362;-1.302;2023-10-19T13:38:45;3.35;;;1.10;;
48651;SDS011;34442;52.362;-1.302;2023-10-19T13:41:10;4.43;;;1.17;;
48651;SDS011;34442;52.362;-1.302;2023-10-19T13:43:39;2.88;;;1.20;;
48651;SDS011;34442;52.362;-1.302;2023-10-19T13:46:05;2.70;;;0.98;;
48651;SDS011;34442;52.362;-1.302;2023-10-19T13:48:30;3.47;;;1.33;;
48651;SDS011;34442;52.362;-1.302;2023-10-19T13:50:59;3.15;;;1.10;;
48651;SDS011;34442;52.362;-1.302;2023-10-19T13:53:37;2.80;;;1.10;;
48651;SDS011;34442;52.362;-1.302;2023-10-19T13:56:09;4.38;;;1.10;;
48651;SDS011;34442;52.362;-1.302;2023-10-19T13:58:35;1.83;;;1.00;;
48651;SDS011;34442;52.362;-1.302;2023-10-19T14:01:00;3.10;;;0.93;;
48651;SDS011;34442;52.362;-1.302;2023-10-19T14:03:26;4.10;;;1.10;;
48651;SDS011;34442;52.362;-1.302;2023-10-19T14:05:51;1.95;;;0.80;;
48651;SDS011;34442;52.362;-1.302;2023-10-19T14:08:21;3.92;;;1.15;;
48651;SDS011;34442;52.362;-1.302;2023-10-19T14:10:47;3.30;;;1.10;;
48651;SDS011;34442;52.362;-1.302;2023-10-19T14:13:12;5.18;;;1.70;;
48651;SDS011;34442;52.362;-1.302;2023-10-19T14:15:39;1.48;;;0.90;;
48651;SDS011;34442;52.362;-1.302;2023-10-19T14:18:06;2.03;;;0.93;;
48651;SDS011;34442;52.362;-1.302;2023-10-19T14:20:32;2.88;;;1.10;;
48651;SDS011;34442;52.362;-1.302;2023-10-19T14:22:59;2.05;;;0.82;;
48651;SDS011;34442;52.362;-1.302;2023-10-19T14:25:25;3.15;;;0.93;;
48651;SDS011;34442;52.362;-1.302;2023-10-19T14:27:52;3.22;;;0.90;;
48651;SDS011;34442;52.362;-1.302;2023-10-19T14:30:22;4.35;;;1.27;;
48651;SDS011;34442;52.362;-1.302;2023-10-19T14:32:49;1.13;;;0.82;;
48651;SDS011;34442;52.362;-1.302;2023-10-19T14:35:16;3.97;;;1.40;;
48651;SDS011;34442;52.362;-1.302;2023-10-19T14:37:43;3.72;;;1.10;;
48651;SDS011;34442;52.362;-1.302;2023-10-19T14:40:11;3.13;;;1.10;;
48651;SDS011;34442;52.362;-1.302;2023-10-19T14:42:39;3.15;;;1.20;;
48651;SDS011;34442;52.362;-1.302;2023-10-19T14:45:31;3.95;;;1.00;;
48651;SDS011;34442;52.362;-1.302;2023-10-19T14:48:03;4.00;;;1.13;;
48651;SDS011;34442;52.362;-1.302;2023-10-19T14:50:29;1.98;;;0.80;;
48651;SDS011;34442;52.362;-1.302;2023-10-19T14:52:55;4.85;;;1.20;;
48651;SDS011;34442;52.362;-1.302;2023-10-19T14:55:21;1.73;;;0.98;;
48651;SDS011;34442;52.362;-1.302;2023-10-19T14:57:48;5.43;;;2.20;;